Terminal Aerodrome Forecast
Issued by NWS

Home | Current Version | Previous Version | Text Only | Print | Product List | Glossary On
Versions: 1 2 3 4 5 6 7 8 9 10 11 12 13 14 15 16 17 18 19 20 21 22 23 24 25 26 27 28 29 30 31 32 33 34
000
FTUS45 KGGW 060500
TAFOLF
TAF
KOLF 060520Z 0606/0706 31007KT P6SM SCT050 BKN090
     FM060700 VRB06KT P6SM -SHRA OVC050
     FM061200 VRB05KT 5SM HZ SCT050
     FM061500 VRB06KT P6SM SCT250=

USA.gov is the U.S. government's official web portal to all federal, state and local government web resources and services.